Time;durP1;ratioP1;P1;durP2;ratioP2;P2;SDS_P1;SDS_P2;PMS_P1;PMS_P2;Temp;Humidity;BMP_temperature;BMP_pressure;BME280_temperature;BME280_humidity;BME280_pressure;Samples;Min_cycle;Max_cycle;Signal;HPM_P1;HPM_P2
2023/01/27 00:00:23;;;;;;;3.22;1.50;;;;;;;;;;5038487;28;20021;-75
2023/01/27 00:02:49;;;;;;;6.03;1.85;;;;;;;;;;5038485;28;20494;-75
2023/01/27 00:05:15;;;;;;;5.05;1.95;;;;;;;;;;5038680;28;20037;-77
2023/01/27 00:07:45;;;;;;;4.57;1.70;;;;;;;;;;5038779;28;20063;-78
2023/01/27 00:10:14;;;;;;;2.97;1.52;;;;;;;;;;5038686;28;20031;-76
2023/01/27 00:15:24;;;;;;;4.43;1.85;;;;;;;;;;5041050;28;20032;-78
2023/01/27 00:17:49;;;;;;;2.55;1.33;;;;;;;;;;5038170;28;20033;-77
2023/01/27 00:24:34;;;;;;;2.80;1.42;;;;;;;;;;5056138;28;20045;-77
2023/01/27 00:26:01;;;;;;;3.90;1.38;;;;;;;;;;5040950;28;20132;-77
2023/01/27 00:28:30;;;;;;;6.07;2.00;;;;;;;;;;5038834;28;20104;-78
2023/01/27 00:30:56;;;;;;;4.78;1.52;;;;;;;;;;5055759;28;20113;-77
2023/01/27 00:33:24;;;;;;;3.72;1.55;;;;;;;;;;5055977;28;20053;-77
2023/01/27 00:35:49;;;;;;;3.55;1.48;;;;;;;;;;5038820;28;20087;-77
2023/01/27 00:38:14;;;;;;;3.40;1.35;;;;;;;;;;5037823;28;20033;-77
2023/01/27 00:41:13;;;;;;;2.85;1.33;;;;;;;;;;5037670;28;20043;-76
2023/01/27 00:43:25;;;;;;;2.97;1.40;;;;;;;;;;5040433;28;20095;-77
2023/01/27 00:45:51;;;;;;;4.32;1.42;;;;;;;;;;5055190;28;20037;-76
2023/01/27 00:48:16;;;;;;;3.25;1.60;;;;;;;;;;5055692;28;20035;-77
2023/01/27 00:50:42;;;;;;;3.10;1.48;;;;;;;;;;5037972;28;20032;-77
2023/01/27 00:53:07;;;;;;;2.28;1.30;;;;;;;;;;5037479;28;20121;-77
2023/01/27 00:55:33;;;;;;;4.22;1.83;;;;;;;;;;5055818;28;20111;-76
2023/01/27 00:57:58;;;;;;;3.25;1.30;;;;;;;;;;5055288;28;20029;-76
2023/01/27 01:00:23;;;;;;;3.00;1.30;;;;;;;;;;5055308;28;20029;-77
2023/01/27 01:02:49;;;;;;;6.30;1.60;;;;;;;;;;5037367;28;20039;-76
2023/01/27 01:05:14;;;;;;;7.50;1.17;;;;;;;;;;5055019;28;20068;-76
2023/01/27 01:07:40;;;;;;;2.67;1.30;;;;;;;;;;5037845;28;20039;-76
2023/01/27 01:10:06;;;;;;;2.95;1.33;;;;;;;;;;5053805;28;20480;-76
2023/01/27 01:12:31;;;;;;;5.78;1.45;;;;;;;;;;5055612;28;20075;-78
2023/01/27 01:14:56;;;;;;;3.65;1.70;;;;;;;;;;5054920;28;20497;-78
2023/01/27 01:17:22;;;;;;;4.53;1.50;;;;;;;;;;5054880;28;20032;-77
2023/01/27 01:19:47;;;;;;;3.20;1.30;;;;;;;;;;5054786;28;20450;-78
2023/01/27 01:22:13;;;;;;;2.75;1.20;;;;;;;;;;5054957;28;20043;-78
2023/01/27 01:24:38;;;;;;;4.18;1.50;;;;;;;;;;5054667;28;20056;-77
2023/01/27 01:27:03;;;;;;;5.60;1.60;;;;;;;;;;5054786;28;20119;-78
2023/01/27 01:29:29;;;;;;;2.80;1.40;;;;;;;;;;5054780;28;20082;-77
2023/01/27 01:31:54;;;;;;;2.72;1.35;;;;;;;;;;5054930;28;20531;-78
2023/01/27 01:34:19;;;;;;;3.53;1.50;;;;;;;;;;5055015;28;20491;-77
2023/01/27 01:36:45;;;;;;;3.15;1.42;;;;;;;;;;5036696;28;20029;-77
2023/01/27 01:39:10;;;;;;;4.13;1.38;;;;;;;;;;5055022;28;20033;-77
2023/01/27 01:41:35;;;;;;;4.00;1.35;;;;;;;;;;5036872;28;20036;-77
2023/01/27 01:44:36;;;;;;;3.05;1.48;;;;;;;;;;5036432;28;20156;-77
2023/01/27 01:47:02;;;;;;;3.67;1.23;;;;;;;;;;4996290;28;20065;-77
2023/01/27 01:49:34;;;;;;;2.35;1.48;;;;;;;;;;5012720;28;20442;-77
2023/01/27 01:52:07;;;;;;;2.85;1.60;;;;;;;;;;5012505;28;20065;-77
2023/01/27 01:54:37;;;;;;;2.47;1.60;;;;;;;;;;4996243;28;20076;-77
2023/01/27 01:57:12;;;;;;;3.65;1.60;;;;;;;;;;5012470;28;20057;-76
2023/01/27 01:59:43;;;;;;;3.50;1.65;;;;;;;;;;4996147;28;20108;-77
2023/01/27 02:02:12;;;;;;;4.60;1.42;;;;;;;;;;4995976;28;20041;-77
2023/01/27 02:04:48;;;;;;;2.88;1.40;;;;;;;;;;5012154;28;20026;-76
2023/01/27 02:07:25;;;;;;;4.43;1.27;;;;;;;;;;5012507;28;20095;-77
2023/01/27 02:09:52;;;;;;;1.98;1.40;;;;;;;;;;5012179;28;20076;-77
2023/01/27 02:12:17;;;;;;;3.45;1.70;;;;;;;;;;5011971;28;20091;-76
2023/01/27 02:14:43;;;;;;;2.90;1.40;;;;;;;;;;5012339;28;20493;-77
2023/01/27 02:17:10;;;;;;;2.53;1.60;;;;;;;;;;5012297;28;20068;-77
2023/01/27 02:19:57;;;;;;;5.93;1.40;;;;;;;;;;5011934;28;20045;-78
2023/01/27 02:22:30;;;;;;;2.33;1.30;;;;;;;;;;5033665;28;20033;-77
2023/01/27 02:24:58;;;;;;;;;;;;;;;;;;5000215;28;20468;-75
2023/01/27 02:27:24;;;;;;;4.22;1.67;;;;;;;;;;5032436;28;20363;-77
2023/01/27 02:29:49;;;;;;;3.35;1.65;;;;;;;;;;5016067;28;20121;-77
2023/01/27 02:32:25;;;;;;;2.45;1.52;;;;;;;;;;5033566;28;20029;-77
2023/01/27 02:34:51;;;;;;;1.98;1.40;;;;;;;;;;5015892;28;20021;-78
2023/01/27 02:37:17;;;;;;;2.85;1.45;;;;;;;;;;5015809;28;20083;-78
2023/01/27 02:39:44;;;;;;;6.50;1.80;;;;;;;;;;4999316;28;20412;-78
2023/01/27 02:42:11;;;;;;;2.63;1.40;;;;;;;;;;5015874;28;20037;-78
2023/01/27 02:44:36;;;;;;;2.63;1.65;;;;;;;;;;5015724;28;20029;-78
2023/01/27 02:47:02;;;;;;;3.22;1.73;;;;;;;;;;5033299;28;20494;-78
2023/01/27 02:49:27;;;;;;;3.35;1.80;;;;;;;;;;5033357;28;20037;-77
2023/01/27 02:51:53;;;;;;;3.28;1.80;;;;;;;;;;5033260;28;20396;-79
2023/01/27 02:54:18;;;;;;;2.17;1.65;;;;;;;;;;5033445;28;20032;-79
2023/01/27 02:56:43;;;;;;;3.17;1.80;;;;;;;;;;5033194;28;20025;-79
2023/01/27 02:59:09;;;;;;;5.38;1.88;;;;;;;;;;5033206;28;20033;-78
2023/01/27 03:01:34;;;;;;;2.17;1.40;;;;;;;;;;5033139;28;20484;-78
2023/01/27 03:04:00;;;;;;;2.20;1.40;;;;;;;;;;5033239;28;20033;-78
2023/01/27 03:06:26;;;;;;;3.05;1.65;;;;;;;;;;5033068;28;20100;-77
2023/01/27 03:08:51;;;;;;;2.08;1.60;;;;;;;;;;5015239;28;20124;-77
2023/01/27 03:12:18;;;;;;;3.38;1.63;;;;;;;;;;5033042;28;20045;-78
2023/01/27 03:14:02;;;;;;;1.75;1.40;;;;;;;;;;5018125;28;20388;-78
2023/01/27 03:19:11;;;;;;;3.00;1.55;;;;;;;;;;5033048;28;20060;-78
2023/01/27 03:21:37;;;;;;;2.47;1.88;;;;;;;;;;5049620;28;20465;-78
2023/01/27 03:24:02;;;;;;;2.63;1.83;;;;;;;;;;5053056;28;20033;-77
2023/01/27 03:26:28;;;;;;;2.53;1.55;;;;;;;;;;5035209;28;20078;-78
2023/01/27 03:31:37;;;;;;;2.63;1.77;;;;;;;;;;5037733;28;20502;-77
2023/01/27 03:34:02;;;;;;;2.78;1.80;;;;;;;;;;5056234;28;20033;-77
2023/01/27 03:47:23;;;;;;;2.95;1.50;;;;;;;;;;5056565;28;20091;-77
2023/01/27 03:49:49;;;;;;;3.25;1.63;;;;;;;;;;5056766;28;20471;-77
2023/01/27 03:52:14;;;;;;;2.55;1.50;;;;;;;;;;5056738;28;20329;-77
2023/01/27 03:54:39;;;;;;;2.40;1.40;;;;;;;;;;5038936;28;20036;-77
2023/01/27 03:57:05;;;;;;;1.73;1.50;;;;;;;;;;5056624;28;20484;-77
2023/01/27 03:59:31;;;;;;;2.78;1.35;;;;;;;;;;5038855;28;20032;-77
2023/01/27 04:07:24;;;;;;;4.25;1.50;;;;;;;;;;5056230;28;20530;-77
2023/01/27 04:09:50;;;;;;;2.63;1.40;;;;;;;;;;5056175;28;20053;-77
2023/01/27 04:12:15;;;;;;;1.40;1.30;;;;;;;;;;5056326;28;20424;-78
2023/01/27 04:14:41;;;;;;;3.08;1.40;;;;;;;;;;5056106;28;20056;-79
2023/01/27 04:17:11;;;;;;;2.17;1.60;;;;;;;;;;5038319;28;20025;-78
2023/01/27 04:19:37;;;;;;;1.70;1.25;;;;;;;;;;5054588;28;20028;-78
2023/01/27 04:22:02;;;;;;;1.50;1.33;;;;;;;;;;5038119;28;20028;-77
2023/01/27 04:24:28;;;;;;;2.58;1.42;;;;;;;;;;5055853;28;20029;-77
2023/01/27 04:26:59;;;;;;;1.35;1.25;;;;;;;;;;5037970;28;20033;-77
2023/01/27 04:29:26;;;;;;;1.92;1.23;;;;;;;;;;5021367;28;20036;-77
2023/01/27 04:31:52;;;;;;;1.45;1.35;;;;;;;;;;5021917;28;20347;-77
2023/01/27 04:34:17;;;;;;;2.83;1.17;;;;;;;;;;5054632;28;20036;-77
2023/01/27 04:36:43;;;;;;;2.50;1.33;;;;;;;;;;5037933;28;20517;-77
2023/01/27 04:39:09;;;;;;;1.58;1.30;;;;;;;;;;5037760;28;20091;-77
2023/01/27 04:41:34;;;;;;;2.65;1.20;;;;;;;;;;5038061;28;20033;-78
2023/01/27 04:44:01;;;;;;;1.30;1.20;;;;;;;;;;5037488;28;20539;-77
2023/01/27 04:46:26;;;;;;;1.63;1.20;;;;;;;;;;5037661;28;20100;-77
2023/01/27 04:48:52;;;;;;;3.35;1.13;;;;;;;;;;5055528;28;20059;-77
2023/01/27 04:51:18;;;;;;;1.30;1.20;;;;;;;;;;5055419;28;20112;-77
2023/01/27 04:53:43;;;;;;;1.30;0.98;;;;;;;;;;5037595;28;20028;-77
2023/01/27 04:56:36;;;;;;;2.05;1.30;;;;;;;;;;5055824;28;20037;-77
2023/01/27 04:59:04;;;;;;;1.38;1.20;;;;;;;;;;5035101;28;20040;-77
2023/01/27 05:01:30;;;;;;;1.02;0.95;;;;;;;;;;5037309;28;20079;-77
2023/01/27 05:03:56;;;;;;;1.08;1.00;;;;;;;;;;5037660;28;20357;-77
2023/01/27 05:06:22;;;;;;;1.73;1.13;;;;;;;;;;5037757;28;20029;-77
2023/01/27 05:08:48;;;;;;;1.70;1.20;;;;;;;;;;5037994;28;20025;-77
2023/01/27 05:11:14;;;;;;;1.10;1.00;;;;;;;;;;5037549;28;20035;-77
2023/01/27 05:13:40;;;;;;;0.90;0.90;;;;;;;;;;5038154;28;20037;-77
2023/01/27 05:16:17;;;;;;;1.13;0.95;;;;;;;;;;5037459;28;20483;-77
2023/01/27 05:18:43;;;;;;;1.63;1.02;;;;;;;;;;5038071;28;20474;-77
2023/01/27 05:21:12;;;;;;;5.78;0.90;;;;;;;;;;5024481;28;20064;-76
2023/01/27 05:23:38;;;;;;;2.83;1.00;;;;;;;;;;5017554;28;20060;-77
2023/01/27 05:26:09;;;;;;;0.82;0.82;;;;;;;;;;5035659;28;20056;-76
2023/01/27 05:28:36;;;;;;;1.02;0.90;;;;;;;;;;5017619;28;20044;-77
2023/01/27 05:31:17;;;;;;;2.30;1.10;;;;;;;;;;5035268;28;20033;-77
2023/01/27 05:33:43;;;;;;;1.08;0.98;;;;;;;;;;5035043;28;20026;-77
2023/01/27 05:36:11;;;;;;;2.72;0.68;;;;;;;;;;5017323;28;20060;-77
2023/01/27 05:38:36;;;;;;;1.08;0.82;;;;;;;;;;5034891;28;20365;-78
2023/01/27 05:41:04;;;;;;;0.98;0.88;;;;;;;;;;5034647;28;20112;-78
2023/01/27 05:43:31;;;;;;;1.58;1.10;;;;;;;;;;5035347;28;20460;-78
2023/01/27 05:46:04;;;;;;;1.00;0.80;;;;;;;;;;5035206;28;20052;-78
2023/01/27 05:48:29;;;;;;;0.70;0.70;;;;;;;;;;5017416;28;20047;-78
2023/01/27 05:50:57;;;;;;;2.17;0.80;;;;;;;;;;5017290;28;20109;-78
2023/01/27 05:53:22;;;;;;;2.00;0.98;;;;;;;;;;5016970;28;20025;-77
2023/01/27 05:55:48;;;;;;;1.75;0.75;;;;;;;;;;5016301;28;20465;-75
2023/01/27 05:58:14;;;;;;;0.75;0.65;;;;;;;;;;5016964;28;20033;-79
2023/01/27 06:00:39;;;;;;;2.10;0.90;;;;;;;;;;5034471;28;20026;-78
2023/01/27 06:03:05;;;;;;;3.65;0.77;;;;;;;;;;5034467;28;20056;-77
2023/01/27 06:05:30;;;;;;;1.55;1.00;;;;;;;;;;5016797;28;20057;-77
2023/01/27 06:07:55;;;;;;;2.17;0.80;;;;;;;;;;5017047;28;20362;-78
2023/01/27 06:10:21;;;;;;;1.17;0.70;;;;;;;;;;5017013;28;20167;-77
2023/01/27 06:12:46;;;;;;;2.08;0.90;;;;;;;;;;5017031;28;20095;-78
2023/01/27 06:15:12;;;;;;;2.80;0.70;;;;;;;;;;5016806;28;20040;-78
2023/01/27 06:17:37;;;;;;;0.60;0.60;;;;;;;;;;5034316;28;20036;-77
2023/01/27 06:20:02;;;;;;;1.45;0.70;;;;;;;;;;5037991;28;20122;-77
2023/01/27 06:22:28;;;;;;;2.38;0.82;;;;;;;;;;5054163;28;20025;-77
2023/01/27 06:24:53;;;;;;;2.83;0.73;;;;;;;;;;5054417;28;20357;-78
2023/01/27 06:27:19;;;;;;;2.05;0.70;;;;;;;;;;5053931;28;20116;-78
2023/01/27 06:29:44;;;;;;;1.27;0.70;;;;;;;;;;5019595;28;20079;-77
2023/01/27 06:32:09;;;;;;;1.30;0.70;;;;;;;;;;5036027;28;20025;-77
2023/01/27 06:34:35;;;;;;;0.82;0.60;;;;;;;;;;5035988;28;20025;-78
2023/01/27 06:37:00;;;;;;;2.08;0.75;;;;;;;;;;5054307;28;20463;-77
2023/01/27 06:39:25;;;;;;;4.70;0.70;;;;;;;;;;5036231;28;20052;-78
2023/01/27 06:41:51;;;;;;;1.42;0.80;;;;;;;;;;5054030;28;20132;-77
2023/01/27 06:44:16;;;;;;;0.60;0.60;;;;;;;;;;5053609;28;20033;-77
2023/01/27 06:46:41;;;;;;;1.00;0.73;;;;;;;;;;5053808;28;20032;-78
2023/01/27 06:49:07;;;;;;;0.60;0.60;;;;;;;;;;5053602;28;20029;-78
2023/01/27 06:51:33;;;;;;;0.95;0.65;;;;;;;;;;5053701;28;20530;-77
2023/01/27 06:53:58;;;;;;;1.23;0.70;;;;;;;;;;5053518;28;20509;-77
2023/01/27 06:56:23;;;;;;;1.70;1.30;;;;;;;;;;5053741;28;20387;-77
2023/01/27 06:58:49;;;;;;;0.60;0.60;;;;;;;;;;5053642;28;20033;-78
2023/01/27 07:01:14;;;;;;;0.63;0.50;;;;;;;;;;5035970;28;20029;-78
2023/01/27 07:03:39;;;;;;;0.50;0.50;;;;;;;;;;5035603;28;20468;-78
2023/01/27 07:06:05;;;;;;;1.25;1.10;;;;;;;;;;5053333;28;20155;-78
2023/01/27 07:08:30;;;;;;;2.35;0.60;;;;;;;;;;5053650;28;20029;-78
2023/01/27 07:10:56;;;;;;;0.75;0.65;;;;;;;;;;5053262;28;20471;-78
2023/01/27 07:13:22;;;;;;;1.27;0.77;;;;;;;;;;5053716;28;20463;-78
2023/01/27 07:15:53;;;;;;;0.75;0.60;;;;;;;;;;5053164;28;20230;-77
2023/01/27 07:18:18;;;;;;;1.25;0.70;;;;;;;;;;5035325;28;20086;-77
2023/01/27 07:20:44;;;;;;;0.60;0.60;;;;;;;;;;5053105;28;20420;-77
2023/01/27 07:23:09;;;;;;;0.40;0.40;;;;;;;;;;5035541;28;20458;-77
2023/01/27 07:25:35;;;;;;;0.82;0.60;;;;;;;;;;5035295;28;20029;-77
2023/01/27 07:28:01;;;;;;;1.15;0.82;;;;;;;;;;5053105;28;20029;-77
2023/01/27 07:30:27;;;;;;;1.17;0.77;;;;;;;;;;5053022;28;20033;-77
2023/01/27 07:32:54;;;;;;;0.93;0.77;;;;;;;;;;5053650;28;20036;-77
2023/01/27 07:35:19;;;;;;;0.70;0.70;;;;;;;;;;5035520;28;20489;-77
2023/01/27 07:37:45;;;;;;;0.93;0.60;;;;;;;;;;5035586;28;20108;-77
2023/01/27 07:40:12;;;;;;;0.70;0.60;;;;;;;;;;5053009;28;20056;-77
2023/01/27 07:42:38;;;;;;;0.80;0.60;;;;;;;;;;5053438;28;20036;-77
2023/01/27 07:45:03;;;;;;;0.90;0.70;;;;;;;;;;5035164;28;20041;-77
2023/01/27 07:47:29;;;;;;;0.60;0.60;;;;;;;;;;5052748;28;20036;-77
2023/01/27 07:49:54;;;;;;;1.35;0.60;;;;;;;;;;5035367;28;20112;-77
2023/01/27 07:52:19;;;;;;;0.73;0.60;;;;;;;;;;5035005;28;20033;-77
2023/01/27 07:54:45;;;;;;;0.57;0.57;;;;;;;;;;5035273;28;20379;-77
2023/01/27 07:57:10;;;;;;;0.60;0.60;;;;;;;;;;5052773;28;20082;-77
2023/01/27 07:59:35;;;;;;;1.10;0.70;;;;;;;;;;5052981;28;20064;-77
2023/01/27 08:02:01;;;;;;;1.02;0.52;;;;;;;;;;5035173;28;20029;-77
2023/01/27 08:04:26;;;;;;;2.83;0.93;;;;;;;;;;5052459;28;20029;-78
2023/01/27 08:06:51;;;;;;;10.32;0.85;;;;;;;;;;5052546;28;20068;-78
2023/01/27 08:09:17;;;;;;;6.63;1.55;;;;;;;;;;5034809;28;20037;-79
2023/01/27 08:11:42;;;;;;;10.27;2.45;;;;;;;;;;5017840;28;20066;-78
2023/01/27 08:14:08;;;;;;;6.88;1.70;;;;;;;;;;5051925;28;20079;-79
2023/01/27 08:16:33;;;;;;;8.57;1.90;;;;;;;;;;5051930;28;20032;-79
2023/01/27 08:18:59;;;;;;;6.70;1.80;;;;;;;;;;5035767;28;20067;-78
2023/01/27 08:21:24;;;;;;;3.67;1.33;;;;;;;;;;5037403;28;20067;-79
2023/01/27 08:23:53;;;;;;;3.92;1.45;;;;;;;;;;5038048;28;20103;-78
2023/01/27 08:26:18;;;;;;;5.65;1.52;;;;;;;;;;5037651;28;20027;-78
2023/01/27 08:28:43;;;;;;;4.00;1.17;;;;;;;;;;5037453;28;20450;-78
2023/01/27 08:31:14;;;;;;;4.00;1.70;;;;;;;;;;5055299;28;20083;-78
2023/01/27 08:33:40;;;;;;;3.42;1.33;;;;;;;;;;5021100;28;20029;-78
2023/01/27 08:36:14;;;;;;;4.25;1.13;;;;;;;;;;5037547;28;20414;-79
2023/01/27 08:38:41;;;;;;;5.88;1.30;;;;;;;;;;5037554;28;20116;-78
2023/01/27 08:41:12;;;;;;;3.85;1.20;;;;;;;;;;5037231;28;20112;-79
2023/01/27 08:43:37;;;;;;;11.23;1.17;;;;;;;;;;5037501;28;20455;-79
2023/01/27 08:46:03;;;;;;;6.13;1.20;;;;;;;;;;5054973;28;20036;-79
2023/01/27 08:48:30;;;;;;;2.55;1.00;;;;;;;;;;5037388;28;20040;-77
2023/01/27 08:50:57;;;;;;;2.28;0.80;;;;;;;;;;5037222;28;20032;-78
2023/01/27 08:53:23;;;;;;;6.25;1.05;;;;;;;;;;5038020;28;20486;-77
2023/01/27 08:55:49;;;;;;;4.25;1.27;;;;;;;;;;5037903;28;20100;-79
2023/01/27 08:58:14;;;;;;;2.30;1.02;;;;;;;;;;5037998;28;20104;-78
2023/01/27 09:00:40;;;;;;;2.15;0.90;;;;;;;;;;5021125;28;20493;-78
2023/01/27 09:03:05;;;;;;;2.47;1.10;;;;;;;;;;5055478;28;20033;-78
2023/01/27 09:05:31;;;;;;;2.85;1.27;;;;;;;;;;5055573;28;20025;-78
2023/01/27 09:07:56;;;;;;;5.30;1.20;;;;;;;;;;5037565;28;20065;-80
2023/01/27 09:10:21;;;;;;;1.92;1.00;;;;;;;;;;5037485;28;20197;-80
2023/01/27 09:12:47;;;;;;;4.50;0.80;;;;;;;;;;5056258;28;20376;-79
2023/01/27 09:15:13;;;;;;;3.22;1.00;;;;;;;;;;5055258;28;20079;-78
2023/01/27 09:17:38;;;;;;;2.13;1.00;;;;;;;;;;5037441;28;20025;-79
2023/01/27 09:20:04;;;;;;;2.58;1.02;;;;;;;;;;5037576;28;20113;-79
2023/01/27 09:22:30;;;;;;;1.42;0.70;;;;;;;;;;5055213;28;20468;-78
2023/01/27 09:24:55;;;;;;;0.93;0.57;;;;;;;;;;5055020;28;20411;-78
2023/01/27 09:27:20;;;;;;;4.15;1.08;;;;;;;;;;5037460;28;20033;-78
2023/01/27 09:29:46;;;;;;;1.98;0.80;;;;;;;;;;5036424;28;20439;-77
2023/01/27 09:32:11;;;;;;;1.70;0.80;;;;;;;;;;5055174;28;20024;-79
2023/01/27 09:34:37;;;;;;;0.55;0.55;;;;;;;;;;5054913;28;20082;-78
2023/01/27 09:37:08;;;;;;;1.42;0.82;;;;;;;;;;5037648;28;20482;-78
2023/01/27 09:39:37;;;;;;;2.55;0.90;;;;;;;;;;5037308;28;20028;-78
2023/01/27 09:42:12;;;;;;;1.20;0.70;;;;;;;;;;5055017;28;20035;-78
2023/01/27 09:45:05;;;;;;;1.23;0.80;;;;;;;;;;5054838;28;20070;-79
2023/01/27 09:48:04;;;;;;;5.45;1.10;;;;;;;;;;5036939;28;20028;-78
2023/01/27 09:50:54;;;;;;;2.40;0.98;;;;;;;;;;5038239;28;20045;-78
2023/01/27 09:53:37;;;;;;;1.85;1.00;;;;;;;;;;5036804;28;20029;-78
2023/01/27 09:56:27;;;;;;;1.95;1.20;;;;;;;;;;5054466;28;20468;-77
2023/01/27 09:58:59;;;;;;;1.02;0.80;;;;;;;;;;5036710;28;20391;-77
2023/01/27 10:01:43;;;;;;;1.73;1.00;;;;;;;;;;5036637;28;20025;-77
2023/01/27 10:04:21;;;;;;;1.10;0.90;;;;;;;;;;5054617;28;20306;-78
2023/01/27 10:07:18;;;;;;;0.90;0.65;;;;;;;;;;5054533;28;20021;-79
2023/01/27 10:09:53;;;;;;;1.48;0.80;;;;;;;;;;5019914;28;20082;-78
2023/01/27 10:12:28;;;;;;;1.35;0.90;;;;;;;;;;5036244;28;20040;-79
2023/01/27 10:15:07;;;;;;;1.58;0.80;;;;;;;;;;5054481;28;20048;-79
2023/01/27 10:17:54;;;;;;;0.63;0.50;;;;;;;;;;5036327;28;20477;-79
2023/01/27 10:20:27;;;;;;;1.55;0.60;;;;;;;;;;5031821;28;20400;-79
2023/01/27 10:23:05;;;;;;;1.27;0.65;;;;;;;;;;4999905;28;20033;-79
2023/01/27 10:25:48;;;;;;;1.00;0.82;;;;;;;;;;5034047;28;20014;-79
2023/01/27 10:28:17;;;;;;;1.17;0.70;;;;;;;;;;5033853;28;20465;-79
2023/01/27 10:31:06;;;;;;;0.55;0.55;;;;;;;;;;5016513;28;20087;-78
2023/01/27 10:33:52;;;;;;;3.47;0.73;;;;;;;;;;5016186;28;20021;-79
2023/01/27 10:36:29;;;;;;;0.98;0.70;;;;;;;;;;5016767;28;20032;-79
2023/01/27 10:39:20;;;;;;;4.00;0.80;;;;;;;;;;4999786;28;20057;-79
2023/01/27 10:41:58;;;;;;;2.75;0.80;;;;;;;;;;5006779;28;20056;-78
2023/01/27 10:44:32;;;;;;;2.35;1.20;;;;;;;;;;5016134;28;20024;-78
2023/01/27 10:47:14;;;;;;;1.20;0.60;;;;;;;;;;5033740;28;20369;-78
2023/01/27 10:49:44;;;;;;;1.58;0.80;;;;;;;;;;5016263;28;20025;-79
2023/01/27 10:52:14;;;;;;;1.48;0.90;;;;;;;;;;5015964;28;20029;-79
2023/01/27 10:54:51;;;;;;;0.93;0.63;;;;;;;;;;5015909;28;20061;-78
2023/01/27 10:57:21;;;;;;;3.05;0.75;;;;;;;;;;5016139;28;20033;-80
2023/01/27 10:59:59;;;;;;;2.28;0.90;;;;;;;;;;5033815;28;20025;-80
2023/01/27 11:02:38;;;;;;;2.25;0.90;;;;;;;;;;5033521;28;20034;-79
2023/01/27 11:05:09;;;;;;;4.70;1.15;;;;;;;;;;5015961;28;20013;-77
2023/01/27 11:07:51;;;;;;;1.95;1.00;;;;;;;;;;5015678;28;20139;-78
2023/01/27 11:10:17;;;;;;;1.27;0.90;;;;;;;;;;5016021;28;20075;-78
2023/01/27 11:12:48;;;;;;;4.30;1.02;;;;;;;;;;5016121;28;20431;-78
2023/01/27 11:15:26;;;;;;;1.13;0.80;;;;;;;;;;4999268;28;20063;-78
2023/01/27 11:17:58;;;;;;;1.60;1.00;;;;;;;;;;4999208;28;20030;-78
2023/01/27 11:20:34;;;;;;;4.72;0.93;;;;;;;;;;5020026;28;20446;-77
2023/01/27 11:23:08;;;;;;;2.60;1.08;;;;;;;;;;5035704;28;20056;-77
2023/01/27 11:25:55;;;;;;;3.70;1.00;;;;;;;;;;5053067;28;20059;-77
2023/01/27 11:28:39;;;;;;;1.38;0.73;;;;;;;;;;5035434;28;20070;-77
2023/01/27 11:31:19;;;;;;;4.70;1.15;;;;;;;;;;5035758;28;20025;-78
2023/01/27 11:33:56;;;;;;;5.07;0.90;;;;;;;;;;5053275;28;20062;-78
2023/01/27 11:36:22;;;;;;;1.88;0.70;;;;;;;;;;5053267;28;20039;-78
2023/01/27 11:38:48;;;;;;;5.28;0.95;;;;;;;;;;5019051;28;20467;-78
2023/01/27 11:41:13;;;;;;;2.65;0.70;;;;;;;;;;5018721;28;20029;-78
2023/01/27 11:43:39;;;;;;;5.85;1.00;;;;;;;;;;5035584;28;20176;-78
2023/01/27 11:46:07;;;;;;;3.70;0.80;;;;;;;;;;5035088;28;20379;-76
2023/01/27 11:48:45;;;;;;;4.88;0.77;;;;;;;;;;5035068;28;20033;-78
2023/01/27 11:51:24;;;;;;;4.38;0.70;;;;;;;;;;5035079;28;20036;-79
2023/01/27 11:54:23;;;;;;;1.77;0.80;;;;;;;;;;5054450;28;20029;-78
2023/01/27 11:56:49;;;;;;;1.55;0.70;;;;;;;;;;5017562;28;20068;-79
2023/01/27 11:59:37;;;;;;;1.40;0.63;;;;;;;;;;5057029;28;20025;-79
2023/01/27 12:02:05;;;;;;;9.27;2.72;;;;;;;;;;5039151;28;20025;-78
2023/01/27 12:04:37;;;;;;;13.70;3.35;;;;;;;;;;5056821;28;20395;-79
2023/01/27 12:07:25;;;;;;;12.73;2.83;;;;;;;;;;5056832;28;20029;-79
2023/01/27 12:09:51;;;;;;;7.82;2.35;;;;;;;;;;5055647;28;20047;-78
2023/01/27 12:12:24;;;;;;;6.75;2.38;;;;;;;;;;5038865;28;20033;-79
2023/01/27 12:14:53;;;;;;;8.30;2.40;;;;;;;;;;5038657;28;20036;-78
2023/01/27 12:17:37;;;;;;;5.40;1.77;;;;;;;;;;5056060;28;20035;-79
2023/01/27 12:20:20;;;;;;;6.18;1.77;;;;;;;;;;5018816;28;20051;-79
2023/01/27 12:22:50;;;;;;;7.53;1.67;;;;;;;;;;5052741;28;20033;-78
2023/01/27 12:25:26;;;;;;;9.35;1.70;;;;;;;;;;5055763;28;20460;-78
2023/01/27 12:27:55;;;;;;;7.00;1.55;;;;;;;;;;5055887;28;20086;-79
2023/01/27 12:30:24;;;;;;;10.23;1.70;;;;;;;;;;5038249;28;20028;-79
2023/01/27 12:32:50;;;;;;;13.32;1.88;;;;;;;;;;5038482;28;20029;-80
2023/01/27 12:35:31;;;;;;;4.03;1.30;;;;;;;;;;5021426;28;20017;-79
2023/01/27 12:38:03;;;;;;;8.77;1.42;;;;;;;;;;5055653;28;20017;-80
2023/01/27 12:40:28;;;;;;;3.72;1.35;;;;;;;;;;5038066;28;20051;-80
2023/01/27 12:43:10;;;;;;;6.97;1.45;;;;;;;;;;5059628;28;20055;-81
2023/01/27 12:45:37;;;;;;;5.53;1.25;;;;;;;;;;5034988;28;20056;-80
2023/01/27 12:48:08;;;;;;;5.18;1.30;;;;;;;;;;5017685;28;20029;-81
2023/01/27 12:50:36;;;;;;;3.28;1.30;;;;;;;;;;5035203;28;20025;-81
2023/01/27 12:53:11;;;;;;;2.55;1.30;;;;;;;;;;5017344;28;20028;-81
2023/01/27 12:56:07;;;;;;;3.33;1.17;;;;;;;;;;5035004;28;20507;-80
2023/01/27 12:58:36;;;;;;;3.47;0.95;;;;;;;;;;5035354;28;20461;-80
2023/01/27 13:01:18;;;;;;;4.47;1.08;;;;;;;;;;5035533;28;20049;-81
2023/01/27 13:03:43;;;;;;;4.90;1.40;;;;;;;;;;5042061;28;20026;-79
2023/01/27 13:06:14;;;;;;;4.60;1.33;;;;;;;;;;5057033;28;20519;-79
2023/01/27 13:08:40;;;;;;;3.42;1.05;;;;;;;;;;5056817;28;20028;-79
2023/01/27 13:11:06;;;;;;;2.08;1.10;;;;;;;;;;5056759;28;20475;-80
2023/01/27 13:13:32;;;;;;;4.32;1.20;;;;;;;;;;5040074;28;20027;-80
2023/01/27 13:16:13;;;;;;;2.22;1.02;;;;;;;;;;5056601;28;20036;-80
2023/01/27 13:18:41;;;;;;;5.50;1.05;;;;;;;;;;5055017;28;20039;-78
2023/01/27 13:21:14;;;;;;;4.18;0.85;;;;;;;;;;5074205;28;20127;-79
2023/01/27 13:23:40;;;;;;;3.97;1.13;;;;;;;;;;5056885;28;20033;-79
2023/01/27 13:26:05;;;;;;;2.03;1.00;;;;;;;;;;5056598;28;20028;-79
2023/01/27 13:28:57;;;;;;;1.70;0.90;;;;;;;;;;5074258;28;20032;-79
2023/01/27 13:31:46;;;;;;;1.75;0.90;;;;;;;;;;5010363;28;20035;-79
2023/01/27 13:34:32;;;;;;;2.50;1.00;;;;;;;;;;5056404;28;20467;-80
2023/01/27 13:37:07;;;;;;;2.78;1.02;;;;;;;;;;5073882;28;20046;-78
2023/01/27 13:39:54;;;;;;;5.88;1.33;;;;;;;;;;5050448;28;20498;-78
2023/01/27 13:42:28;;;;;;;2.50;0.80;;;;;;;;;;5038329;28;20033;-78
2023/01/27 13:45:02;;;;;;;;;;;;;;;;;;5020226;28;20534;-80
2023/01/27 13:47:50;;;;;;;1.75;0.88;;;;;;;;;;5053853;28;20015;-79
2023/01/27 13:50:30;;;;;;;3.03;1.42;;;;;;;;;;5036428;28;20028;-78
2023/01/27 13:52:57;;;;;;;2.05;1.20;;;;;;;;;;5036583;28;20525;-82
2023/01/27 13:55:49;;;;;;;2.50;0.80;;;;;;;;;;5051992;28;20025;-81
2023/01/27 13:58:39;;;;;;;2.38;0.82;;;;;;;;;;5036011;28;20028;-82
2023/01/27 14:01:24;;;;;;;0.73;0.73;;;;;;;;;;5054100;28;20546;-80
2023/01/27 14:03:58;;;;;;;1.02;0.70;;;;;;;;;;5036260;28;20155;-82
2023/01/27 14:06:36;;;;;;;4.22;0.90;;;;;;;;;;5036303;28;20487;-80
2023/01/27 14:09:19;;;;;;;2.90;1.00;;;;;;;;;;5036136;28;20033;-80
2023/01/27 14:11:54;;;;;;;1.63;0.90;;;;;;;;;;5053957;28;20090;-78
2023/01/27 14:14:37;;;;;;;3.85;1.20;;;;;;;;;;5069166;28;20480;-79
2023/01/27 14:17:15;;;;;;;1.15;0.90;;;;;;;;;;5035559;28;20025;-79
2023/01/27 14:19:59;;;;;;;0.90;0.77;;;;;;;;;;5036382;28;20037;-79
2023/01/27 14:22:34;;;;;;;3.42;0.80;;;;;;;;;;5053895;28;20069;-79
2023/01/27 14:25:33;;;;;;;1.35;1.20;;;;;;;;;;5053525;28;20391;-80
2023/01/27 14:28:22;;;;;;;4.03;1.00;;;;;;;;;;5019321;28;20242;-80
2023/01/27 14:31:27;;;;;;;3.20;1.02;;;;;;;;;;5005327;28;20037;-79
2023/01/27 14:34:17;;;;;;;1.23;0.90;;;;;;;;;;4957402;28;20171;-79
2023/01/27 14:37:06;;;;;;;3.83;0.90;;;;;;;;;;4973198;28;20035;-79
2023/01/27 14:39:37;;;;;;;8.00;1.20;;;;;;;;;;4956972;28;20557;-79
2023/01/27 14:42:13;;;;;;;1.38;1.00;;;;;;;;;;4972907;28;20143;-78
2023/01/27 14:44:54;;;;;;;1.33;0.90;;;;;;;;;;4939819;28;20033;-79
2023/01/27 14:47:29;;;;;;;0.70;0.70;;;;;;;;;;4956106;28;20038;-79
2023/01/27 14:50:01;;;;;;;2.10;0.95;;;;;;;;;;4972326;28;20046;-77
2023/01/27 14:52:40;;;;;;;2.15;1.17;;;;;;;;;;4956205;28;20066;-78
2023/01/27 14:55:05;;;;;;;1.80;1.10;;;;;;;;;;4972340;28;20031;-80
2023/01/27 14:58:15;;;;;;;1.13;0.85;;;;;;;;;;4955801;28;20046;-79
2023/01/27 15:00:57;;;;;;;3.58;2.15;;;;;;;;;;4955933;28;20030;-80
2023/01/27 15:03:41;;;;;;;1.73;0.80;;;;;;;;;;4940247;28;20034;-78
2023/01/27 15:06:31;;;;;;;2.43;0.97;;;;;;;;;;4972125;28;20359;-78
2023/01/27 15:09:12;;;;;;;1.27;1.13;;;;;;;;;;5048142;28;20049;-78
2023/01/27 15:12:05;;;;;;;1.88;0.93;;;;;;;;;;5033098;28;20029;-79
2023/01/27 15:15:02;;;;;;;1.20;0.98;;;;;;;;;;5018474;28;20108;-77
2023/01/27 15:18:02;;;;;;;5.05;1.10;;;;;;;;;;5052775;28;20021;-78
2023/01/27 15:21:05;;;;;;;2.35;1.02;;;;;;;;;;5052602;28;20133;-78
2023/01/27 15:23:56;;;;;;;1.33;0.88;;;;;;;;;;5052685;28;20498;-78
2023/01/27 15:26:24;;;;;;;1.90;1.27;;;;;;;;;;5036635;28;20545;-79
2023/01/27 15:28:50;;;;;;;2.15;0.80;;;;;;;;;;5036407;28;20554;-79
2023/01/27 15:31:15;;;;;;;1.15;0.90;;;;;;;;;;5039522;28;20109;-79
2023/01/27 15:33:47;;;;;;;1.08;0.90;;;;;;;;;;5056679;28;20025;-78